createdAt,value
2018-06-10T00:00:34.238Z,18.10
2018-06-10T00:03:02.755Z,18.10
2018-06-10T00:05:32.274Z,18.10
2018-06-10T00:08:00.803Z,18.10
2018-06-10T00:10:29.813Z,18.00
2018-06-10T00:12:58.331Z,18.00
2018-06-10T00:17:55.154Z,18.00
2018-06-10T00:20:23.685Z,18.00
2018-06-10T00:22:52.250Z,17.90
2018-06-10T00:25:20.747Z,17.90
2018-06-10T00:27:49.224Z,17.90
2018-06-10T00:35:14.294Z,17.80
2018-06-10T00:37:42.843Z,17.80
2018-06-10T00:45:07.912Z,17.70
2018-06-10T00:47:36.939Z,17.70
2018-06-10T00:50:05.518Z,17.60
2018-06-10T00:52:34.036Z,17.60
2018-06-10T00:57:30.897Z,17.50
2018-06-10T01:00:00.649Z,17.50
2018-06-10T01:02:30.401Z,17.50
2018-06-10T01:04:58.929Z,17.50
2018-06-10T01:07:27.481Z,17.50
2018-06-10T01:12:24.271Z,17.40
2018-06-10T01:14:52.799Z,17.40
2018-06-10T01:17:21.391Z,17.30
2018-06-10T01:22:18.253Z,17.30
2018-06-10T01:27:15.013Z,17.20
2018-06-10T01:32:11.815Z,17.20
2018-06-10T01:34:40.377Z,17.10
2018-06-10T01:37:08.932Z,17.20
2018-06-10T01:42:05.682Z,17.10
2018-06-10T01:44:34.227Z,17.10
2018-06-10T01:47:02.752Z,17.10
2018-06-10T01:51:59.503Z,17.10
2018-06-10T01:54:28.055Z,17.00
2018-06-10T01:56:56.591Z,17.00
2018-06-10T01:59:25.155Z,17.00
2018-06-10T02:06:50.235Z,16.90
2018-06-10T02:09:18.868Z,16.90
2018-06-10T02:11:47.454Z,16.90
2018-06-10T02:14:15.942Z,16.90
2018-06-10T02:21:41.058Z,16.80
2018-06-10T02:24:09.602Z,16.80
2018-06-10T02:26:38.100Z,16.80
2018-06-10T02:29:06.666Z,16.80
2018-06-10T02:31:35.179Z,16.70
2018-06-10T02:34:03.730Z,16.70
2018-06-10T02:36:33.339Z,16.70
2018-06-10T02:39:03.204Z,16.70
2018-06-10T02:44:01.029Z,16.70
2018-06-10T02:46:29.601Z,16.60
2018-06-10T02:48:58.134Z,16.60
2018-06-10T02:51:26.823Z,16.60
2018-06-10T02:53:55.351Z,16.60
2018-06-10T02:56:23.909Z,16.60
2018-06-10T03:01:20.699Z,16.60
2018-06-10T03:03:49.211Z,16.60
2018-06-10T03:06:17.772Z,16.60
2018-06-10T03:08:46.293Z,16.60
2018-06-10T03:11:14.886Z,16.60
2018-06-10T03:13:43.404Z,16.60
2018-06-10T03:16:11.971Z,16.50
2018-06-10T03:18:40.507Z,16.60
2018-06-10T03:21:09.040Z,16.60
2018-06-10T03:23:37.541Z,16.60
2018-06-10T03:26:06.126Z,16.60
2018-06-10T03:28:34.682Z,16.50
2018-06-10T03:31:04.279Z,16.50
2018-06-10T03:36:02.936Z,16.50
2018-06-10T03:38:32.120Z,16.50
2018-06-10T03:41:01.229Z,16.60
2018-06-10T03:43:29.802Z,16.60
2018-06-10T03:45:58.378Z,16.60
2018-06-10T03:48:26.869Z,16.60
2018-06-10T03:50:55.384Z,16.60
2018-06-10T03:53:23.936Z,16.60
2018-06-10T03:55:52.440Z,16.70
2018-06-10T03:58:20.995Z,16.70
2018-06-10T04:00:49.511Z,16.80
2018-06-10T04:03:18.048Z,16.80
2018-06-10T04:05:46.537Z,16.80
2018-06-10T04:08:15.077Z,16.90
2018-06-10T04:15:40.098Z,17.00
2018-06-10T04:20:37.091Z,17.10
2018-06-10T04:23:05.812Z,17.10
2018-06-10T04:25:34.407Z,17.20
2018-06-10T04:28:03.594Z,17.30
2018-06-10T04:30:32.684Z,17.40
2018-06-10T04:33:02.075Z,17.60
2018-06-10T04:35:32.636Z,17.70
2018-06-10T04:38:01.908Z,17.80
2018-06-10T04:40:31.081Z,18.00
2018-06-10T04:43:00.526Z,18.20
2018-06-10T04:45:33.409Z,18.30
2018-06-10T04:48:02.718Z,18.50
2018-06-10T04:50:32.067Z,18.70
2018-06-10T04:53:01.149Z,18.80
2018-06-10T04:55:29.720Z,18.90
2018-06-10T05:00:26.984Z,18.90
2018-06-10T05:02:55.751Z,19.00
2018-06-10T05:05:24.403Z,19.00
2018-06-10T05:07:53.043Z,19.00
2018-06-10T05:12:50.019Z,19.10
2018-06-10T05:15:18.599Z,19.10
2018-06-10T05:17:47.346Z,19.20
2018-06-10T05:20:16.008Z,19.30
2018-06-10T05:22:44.616Z,19.50
2018-06-10T05:25:13.191Z,19.70
2018-06-10T05:27:41.757Z,19.90
2018-06-10T05:30:10.415Z,20.00
2018-06-10T05:32:38.979Z,20.20
2018-06-10T05:37:36.933Z,20.70
2018-06-10T05:40:05.624Z,20.90
2018-06-10T05:42:34.179Z,21.10
2018-06-10T05:45:03.193Z,21.30
2018-06-10T05:47:32.122Z,21.50
2018-06-10T05:54:58.088Z,22.30
2018-06-10T05:57:26.640Z,22.60
2018-06-10T05:59:55.273Z,22.80
2018-06-10T06:02:24.060Z,22.90
2018-06-10T06:04:52.795Z,23.10
2018-06-10T06:07:21.539Z,23.10
2018-06-10T06:09:50.553Z,23.10
2018-06-10T06:12:19.220Z,23.20
2018-06-10T06:14:49.256Z,23.20
2018-06-10T06:17:18.365Z,23.30
2018-06-10T06:19:47.267Z,23.40
2018-06-10T06:22:22.386Z,23.60
2018-06-10T06:24:51.403Z,23.70
2018-06-10T06:27:20.960Z,23.80
2018-06-10T06:29:49.893Z,23.80
2018-06-10T06:32:19.703Z,23.90
2018-06-10T06:34:51.463Z,24.00
2018-06-10T06:37:20.477Z,24.10
2018-06-10T06:42:18.370Z,24.30
2018-06-10T06:44:47.317Z,24.40
2018-06-10T06:47:16.418Z,24.50
2018-06-10T06:49:45.641Z,24.70
2018-06-10T06:52:14.502Z,25.00
2018-06-10T06:54:43.445Z,25.30
2018-06-10T06:57:12.861Z,25.40
2018-06-10T06:59:41.860Z,25.60
2018-06-10T07:02:10.873Z,25.80
2018-06-10T07:04:39.672Z,25.80
2018-06-10T07:07:09.876Z,26.00
2018-06-10T07:09:38.966Z,26.00
2018-06-10T07:12:07.660Z,26.00
2018-06-10T07:14:36.742Z,26.10
2018-06-10T07:17:05.806Z,26.20
2018-06-10T07:19:34.493Z,26.30
2018-06-10T07:22:03.860Z,26.40
2018-06-10T07:24:33.709Z,26.60
2018-06-10T07:27:03.175Z,26.70
2018-06-10T07:29:32.321Z,26.90
2018-06-10T07:32:01.744Z,27.00
2018-06-10T07:34:31.140Z,27.10
2018-06-10T07:37:22.315Z,27.20
2018-06-10T07:40:04.107Z,27.40
2018-06-10T07:42:34.650Z,27.50
2018-06-10T07:45:27.179Z,27.50
2018-06-10T07:47:58.248Z,27.40
2018-06-10T07:50:28.102Z,27.40
2018-06-10T07:52:58.186Z,27.40
2018-06-10T07:55:41.473Z,27.50
2018-06-10T07:58:11.471Z,27.70
2018-06-10T08:00:40.221Z,27.90
2018-06-10T08:03:09.059Z,28.00
2018-06-10T08:05:37.774Z,28.20
2018-06-10T08:08:17.226Z,28.30
2018-06-10T08:10:47.963Z,28.40
2018-06-10T08:13:17.408Z,28.50
2018-06-10T08:18:15.929Z,28.70
2018-06-10T08:20:49.851Z,28.80
2018-06-10T08:24:00.896Z,28.80
2018-06-10T08:26:32.503Z,28.80
2018-06-10T08:29:03.180Z,28.90
2018-06-10T08:31:33.758Z,28.80
2018-06-10T08:34:04.471Z,28.90
2018-06-10T08:36:35.913Z,29.00
2018-06-10T08:39:08.513Z,29.30
2018-06-10T08:41:37.266Z,29.50
2018-06-10T08:44:06.946Z,29.80
2018-06-10T08:46:39.712Z,30.00
2018-06-10T08:49:13.968Z,30.20
2018-06-10T08:51:43.263Z,30.40
2018-06-10T08:54:13.573Z,30.70
2018-06-10T08:56:43.190Z,31.00
2018-06-10T08:59:11.936Z,31.10
2018-06-10T09:01:41.277Z,31.20
2018-06-10T09:04:10.069Z,31.30
2018-06-10T09:06:38.804Z,31.40
2018-06-10T09:09:10.027Z,31.50
2018-06-10T09:15:32.919Z,31.70
2018-06-10T09:18:03.197Z,31.40
2018-06-10T09:20:34.031Z,31.10
2018-06-10T09:23:04.015Z,30.90
2018-06-10T09:25:34.342Z,30.80
2018-06-10T09:28:03.937Z,30.60
2018-06-10T09:30:56.157Z,30.60
2018-06-10T09:33:25.018Z,30.50
2018-06-10T09:35:53.937Z,30.50
2018-06-10T09:38:23.499Z,30.50
2018-06-10T09:40:52.716Z,30.60
2018-06-10T09:43:21.725Z,30.60
2018-06-10T09:45:51.897Z,30.60
2018-06-10T09:48:27.975Z,30.70
2018-06-10T09:50:57.598Z,30.80
2018-06-10T09:53:26.857Z,30.80
2018-06-10T09:55:57.408Z,30.80
2018-06-10T09:58:39.435Z,30.60
2018-06-10T10:01:09.420Z,30.50
2018-06-10T10:03:38.121Z,30.50
2018-06-10T10:06:12.594Z,30.50
2018-06-10T10:08:59.801Z,30.50
2018-06-10T10:14:00.467Z,30.40
2018-06-10T10:16:29.654Z,30.40
2018-06-10T10:19:02.247Z,30.50
2018-06-10T10:21:33.020Z,30.50
2018-06-10T10:24:05.223Z,30.50
2018-06-10T10:26:34.818Z,30.50
2018-06-10T10:29:05.982Z,30.50
2018-06-10T10:31:41.737Z,30.40
2018-06-10T10:34:11.995Z,30.30
2018-06-10T10:36:41.041Z,30.20
2018-06-10T10:39:10.120Z,30.00
2018-06-10T10:41:40.547Z,29.90
2018-06-10T10:44:09.413Z,29.80
2018-06-10T10:46:38.530Z,29.70
2018-06-10T10:49:07.528Z,29.70
2018-06-10T10:51:36.286Z,29.70
2018-06-10T10:54:06.354Z,29.70
2018-06-10T10:56:37.060Z,29.60
2018-06-10T10:59:06.784Z,29.70
2018-06-10T11:01:36.932Z,29.70
2018-06-10T11:04:06.128Z,29.70
2018-06-10T11:06:36.081Z,29.70
2018-06-10T11:09:07.840Z,29.60
2018-06-10T11:11:37.388Z,29.60
2018-06-10T11:14:06.103Z,29.40
2018-06-10T11:16:35.486Z,29.40
2018-06-10T11:19:09.393Z,29.40
2018-06-10T11:21:38.142Z,29.30
2018-06-10T11:24:06.935Z,29.30
2018-06-10T11:26:36.594Z,29.30
2018-06-10T11:29:06.852Z,29.20
2018-06-10T11:34:05.680Z,29.10
2018-06-10T11:36:39.452Z,28.90
2018-06-10T11:41:38.783Z,28.50
2018-06-10T11:44:08.061Z,28.40
2018-06-10T11:46:37.076Z,28.30
2018-06-10T11:49:07.117Z,28.20
2018-06-10T11:51:36.117Z,28.00
2018-06-10T11:54:05.789Z,27.90
2018-06-10T11:56:35.285Z,27.80
2018-06-10T11:59:04.931Z,27.70
2018-06-10T12:01:34.040Z,27.70
2018-06-10T12:04:04.643Z,27.60
2018-06-10T12:06:34.658Z,27.50
2018-06-10T12:09:05.013Z,27.40
2018-06-10T12:11:34.570Z,27.20
2018-06-10T12:14:03.870Z,27.10
2018-06-10T12:16:33.441Z,27.00
2018-06-10T12:19:02.858Z,27.00
2018-06-10T12:21:31.661Z,27.20
2018-06-10T12:24:00.708Z,27.30
2018-06-10T12:26:29.578Z,27.30
2018-06-10T12:28:59.028Z,27.30
2018-06-10T12:31:27.947Z,27.30
2018-06-10T12:33:57.116Z,27.30
2018-06-10T12:36:26.013Z,27.30
2018-06-10T12:38:54.859Z,27.30
2018-06-10T12:43:52.603Z,27.20
2018-06-10T12:46:21.740Z,27.10
2018-06-10T12:48:50.421Z,26.90
2018-06-10T12:51:19.190Z,26.50
2018-06-10T12:53:47.930Z,26.10
2018-06-10T12:56:16.518Z,25.70
2018-06-10T12:58:45.152Z,25.30
2018-06-10T13:01:14.866Z,25.10
2018-06-10T13:06:12.064Z,25.00
2018-06-10T13:08:40.656Z,24.90
2018-06-10T13:11:09.245Z,24.80
2018-06-10T13:13:37.810Z,24.90
2018-06-10T13:16:06.633Z,25.00
2018-06-10T13:18:37.364Z,25.00
2018-06-10T13:23:35.645Z,24.90
2018-06-10T13:26:05.743Z,24.80
2018-06-10T13:28:35.306Z,24.70
2018-06-10T13:31:04.787Z,24.70
2018-06-10T13:33:34.521Z,24.60
2018-06-10T13:36:04.088Z,24.70
2018-06-10T13:38:33.307Z,24.70
2018-06-10T13:41:02.047Z,24.60
2018-06-10T13:43:30.883Z,24.60
2018-06-10T13:46:04.105Z,24.80
2018-06-10T13:48:33.374Z,24.80
2018-06-10T13:51:02.132Z,24.90
2018-06-10T13:53:31.935Z,25.00
2018-06-10T13:56:00.728Z,25.10
2018-06-10T13:58:29.536Z,25.20
2018-06-10T14:00:58.256Z,25.30
2018-06-10T14:03:27.024Z,25.30
2018-06-10T14:05:56.225Z,25.30
2018-06-10T14:08:25.013Z,25.30
2018-06-10T14:10:53.790Z,25.30
2018-06-10T14:13:22.532Z,25.20
2018-06-10T14:18:19.704Z,24.90
2018-06-10T14:23:16.849Z,24.60
2018-06-10T14:25:45.828Z,24.40
2018-06-10T14:28:14.457Z,24.30
2018-06-10T14:30:43.126Z,24.10
2018-06-10T14:33:11.868Z,23.90
2018-06-10T14:35:40.664Z,23.50
2018-06-10T14:38:09.716Z,23.30
2018-06-10T14:40:38.634Z,23.00
2018-06-10T14:43:08.099Z,22.80
2018-06-10T14:45:37.348Z,22.50
2018-06-10T14:48:06.701Z,22.30
2018-06-10T14:50:36.226Z,22.10
2018-06-10T14:53:06.073Z,21.90
2018-06-10T14:55:35.289Z,21.70
2018-06-10T15:00:32.992Z,21.40
2018-06-10T15:03:01.899Z,21.30
2018-06-10T15:05:30.602Z,21.20
2018-06-10T15:07:59.510Z,21.10
2018-06-10T15:10:28.052Z,21.00
2018-06-10T15:12:56.765Z,20.90
2018-06-10T15:15:25.356Z,20.90
2018-06-10T15:17:55.189Z,21.00
2018-06-10T15:20:23.820Z,21.00
2018-06-10T15:22:52.448Z,21.10
2018-06-10T15:27:50.527Z,21.40
2018-06-10T15:30:19.328Z,21.50
2018-06-10T15:32:48.098Z,21.70
2018-06-10T15:35:16.847Z,21.80
2018-06-10T15:37:45.723Z,22.00
2018-06-10T15:42:46.020Z,22.40
2018-06-10T15:45:14.796Z,22.60
2018-06-10T15:47:43.624Z,22.70
2018-06-10T15:50:13.152Z,22.80
2018-06-10T15:52:42.739Z,22.80
2018-06-10T15:55:12.524Z,22.90
2018-06-10T15:57:41.474Z,22.90
2018-06-10T16:00:10.249Z,22.90
2018-06-10T16:02:38.921Z,22.90
2018-06-10T16:12:35.766Z,22.80
2018-06-10T16:15:05.252Z,22.80
2018-06-10T16:17:34.914Z,22.80
2018-06-10T16:25:01.106Z,22.80
2018-06-10T16:27:29.806Z,22.80
2018-06-10T16:29:58.419Z,22.80
2018-06-10T16:32:27.175Z,22.80
2018-06-10T16:34:56.100Z,22.80
2018-06-10T16:37:24.783Z,22.80
2018-06-10T16:39:53.636Z,22.90
2018-06-10T16:42:22.385Z,22.90
2018-06-10T16:44:51.810Z,22.80
2018-06-10T16:52:18.492Z,22.70
2018-06-10T16:54:47.091Z,22.60
2018-06-10T16:57:16.225Z,22.50
2018-06-10T16:59:44.867Z,22.50
2018-06-10T17:02:13.588Z,22.50
2018-06-10T17:04:42.327Z,22.40
2018-06-10T17:07:11.187Z,22.40
2018-06-10T17:09:39.852Z,22.30
2018-06-10T17:12:08.562Z,22.30
2018-06-10T17:14:37.640Z,22.30
2018-06-10T17:17:07.691Z,22.30
2018-06-10T17:19:37.089Z,22.30
2018-06-10T17:24:36.609Z,22.20
2018-06-10T17:27:06.387Z,22.20
2018-06-10T17:29:35.575Z,22.10
2018-06-10T17:32:04.879Z,22.20
2018-06-10T17:34:33.651Z,22.20
2018-06-10T17:39:33.219Z,22.20
2018-06-10T17:42:02.050Z,22.20
2018-06-10T17:44:30.890Z,22.20
2018-06-10T17:46:59.639Z,22.30
2018-06-10T17:49:28.301Z,22.30
2018-06-10T17:51:58.069Z,22.20
2018-06-10T17:54:26.687Z,22.20
2018-06-10T17:56:55.491Z,22.20
2018-06-10T17:59:25.095Z,22.20
2018-06-10T18:01:53.838Z,22.20
2018-06-10T18:04:22.618Z,22.10
2018-06-10T18:06:51.415Z,22.10
2018-06-10T18:09:19.996Z,22.10
2018-06-10T18:11:49.692Z,22.10
2018-06-10T18:14:18.366Z,22.10
2018-06-10T18:16:47.071Z,22.10
2018-06-10T18:19:15.744Z,22.10
2018-06-10T18:21:46.027Z,22.10
2018-06-10T18:24:14.846Z,22.10
2018-06-10T18:26:44.278Z,22.00
2018-06-10T18:31:41.649Z,21.90
2018-06-10T18:34:10.545Z,21.90
2018-06-10T18:36:40.777Z,21.90
2018-06-10T18:46:38.827Z,21.70
2018-06-10T18:49:09.340Z,21.70
2018-06-10T18:51:39.716Z,21.80
2018-06-10T19:01:38.968Z,21.60
2018-06-10T19:04:10.007Z,21.60
2018-06-10T19:06:40.761Z,21.60
2018-06-10T19:09:11.706Z,21.50
2018-06-10T19:11:41.828Z,21.50
2018-06-10T19:14:11.960Z,21.40
2018-06-10T19:19:11.656Z,21.30
2018-06-10T19:21:41.908Z,21.30
2018-06-10T19:24:12.356Z,21.20
2018-06-10T19:26:44.205Z,21.20
2018-06-10T19:29:14.357Z,21.10
2018-06-10T19:31:44.919Z,21.00
2018-06-10T19:34:14.995Z,21.00
2018-06-10T19:36:45.368Z,20.90
2018-06-10T19:39:16.000Z,20.90
2018-06-10T19:41:47.891Z,20.80
2018-06-10T19:44:18.078Z,20.70
2018-06-10T19:46:54.403Z,20.60
2018-06-10T19:49:24.226Z,20.60
2018-06-10T19:54:23.048Z,20.50
2018-06-10T19:56:52.367Z,20.50
2018-06-10T19:59:21.310Z,20.40
2018-06-10T20:01:50.516Z,20.40
2018-06-10T20:04:19.352Z,20.40
2018-06-10T20:06:48.686Z,20.40
2018-06-10T20:09:17.926Z,20.40
2018-06-10T20:11:47.480Z,20.30
2018-06-10T20:14:16.283Z,20.30
2018-06-10T20:16:45.377Z,20.30
2018-06-10T20:19:15.104Z,20.20
2018-06-10T20:21:45.294Z,20.20
2018-06-10T20:24:14.883Z,20.20
2018-06-10T20:26:44.262Z,20.10
2018-06-10T20:29:13.275Z,20.10
2018-06-10T20:34:11.044Z,20.00
2018-06-10T20:36:40.181Z,20.00
2018-06-10T20:39:09.599Z,19.90
2018-06-10T20:41:39.388Z,19.80
2018-06-10T20:44:08.655Z,19.80
2018-06-10T20:46:38.518Z,19.70
2018-06-10T20:49:08.449Z,19.70
2018-06-10T20:51:38.273Z,19.60
2018-06-10T20:54:08.266Z,19.60
2018-06-10T20:57:04.968Z,19.50
2018-06-10T20:59:35.764Z,19.50
2018-06-10T21:02:04.763Z,19.40
2018-06-10T21:09:31.363Z,19.30
2018-06-10T21:12:00.662Z,19.20
2018-06-10T21:16:58.690Z,19.20
2018-06-10T21:19:27.875Z,19.20
2018-06-10T21:21:56.661Z,19.10
2018-06-10T21:24:27.531Z,19.10
2018-06-10T21:26:56.662Z,19.10
2018-06-10T21:29:25.942Z,19.10
2018-06-10T21:31:55.084Z,19.10
2018-06-10T21:34:24.298Z,19.10
2018-06-10T21:36:53.215Z,19.10
2018-06-10T21:39:22.372Z,19.00
2018-06-10T21:41:51.589Z,19.00
2018-06-10T21:44:27.359Z,18.90
2018-06-10T21:46:56.799Z,18.90
2018-06-10T21:49:26.914Z,18.80
2018-06-10T21:51:55.887Z,18.80
2018-06-10T21:54:27.193Z,18.70
2018-06-10T21:56:56.262Z,18.70
2018-06-10T21:59:24.956Z,18.70
2018-06-10T22:01:54.266Z,18.60
2018-06-10T22:04:22.919Z,18.60
2018-06-10T22:06:51.851Z,18.50
2018-06-10T22:09:20.519Z,18.50
2018-06-10T22:11:49.532Z,18.50
2018-06-10T22:14:18.615Z,18.40
2018-06-10T22:16:47.598Z,18.40
2018-06-10T22:19:16.628Z,18.40
2018-06-10T22:21:45.614Z,18.30
2018-06-10T22:24:14.629Z,18.30
2018-06-10T22:26:43.810Z,18.20
2018-06-10T22:29:12.616Z,18.20
2018-06-10T22:31:41.717Z,18.20
2018-06-10T22:34:10.620Z,18.10
2018-06-10T22:39:09.550Z,18.10
2018-06-10T22:41:39.444Z,18.00
2018-06-10T22:46:38.363Z,17.90
2018-06-10T22:49:08.082Z,17.90
2018-06-10T22:54:41.240Z,17.80
2018-06-10T22:59:39.908Z,17.80
2018-06-10T23:02:10.316Z,17.80
2018-06-10T23:07:08.857Z,17.70
2018-06-10T23:09:38.006Z,17.70
2018-06-10T23:12:07.590Z,17.70
2018-06-10T23:14:37.091Z,17.70
2018-06-10T23:17:06.915Z,17.70
2018-06-10T23:19:36.501Z,17.70
2018-06-10T23:22:05.533Z,17.70
2018-06-10T23:27:02.828Z,17.70
2018-06-10T23:29:31.778Z,17.70
2018-06-10T23:32:01.263Z,17.70
2018-06-10T23:34:30.391Z,17.70
2018-06-10T23:39:28.368Z,17.70
2018-06-10T23:41:57.357Z,17.70
2018-06-10T23:44:26.509Z,17.70
2018-06-10T23:46:55.513Z,17.70
2018-06-10T23:49:24.500Z,17.70
2018-06-10T23:51:53.725Z,17.70
2018-06-10T23:54:22.672Z,17.70
2018-06-10T23:56:51.799Z,17.60
2018-06-10T23:59:21.045Z,17.60
